sensor_id;sensor_type;location;lat;lon;timestamp;P1;durP1;ratioP1;P2;durP2;ratioP2
56860;SDS011;42744;51.094;3.490;2022-07-21T00:01:00;12.77;;;7.97;;
56860;SDS011;42744;51.094;3.490;2022-07-21T00:03:26;12.50;;;7.90;;
56860;SDS011;42744;51.094;3.490;2022-07-21T00:05:55;14.00;;;8.50;;
56860;SDS011;42744;51.094;3.490;2022-07-21T00:08:22;11.33;;;8.20;;
56860;SDS011;42744;51.094;3.490;2022-07-21T00:10:48;14.43;;;8.30;;
56860;SDS011;42744;51.094;3.490;2022-07-21T00:13:14;12.83;;;8.97;;
56860;SDS011;42744;51.094;3.490;2022-07-21T00:15:40;9.73;;;7.97;;
56860;SDS011;42744;51.094;3.490;2022-07-21T00:18:06;11.57;;;8.63;;
56860;SDS011;42744;51.094;3.490;2022-07-21T00:20:32;14.47;;;8.47;;
56860;SDS011;42744;51.094;3.490;2022-07-21T00:22:58;13.43;;;8.50;;
56860;SDS011;42744;51.094;3.490;2022-07-21T00:25:25;14.20;;;9.00;;
56860;SDS011;42744;51.094;3.490;2022-07-21T00:27:51;11.00;;;8.73;;
56860;SDS011;42744;51.094;3.490;2022-07-21T00:30:17;14.23;;;9.60;;
56860;SDS011;42744;51.094;3.490;2022-07-21T00:32:45;13.57;;;9.90;;
56860;SDS011;42744;51.094;3.490;2022-07-21T00:35:14;12.97;;;9.17;;
56860;SDS011;42744;51.094;3.490;2022-07-21T00:37:49;14.97;;;9.67;;
56860;SDS011;42744;51.094;3.490;2022-07-21T00:40:15;12.90;;;9.57;;
56860;SDS011;42744;51.094;3.490;2022-07-21T00:42:42;10.63;;;8.37;;
56860;SDS011;42744;51.094;3.490;2022-07-21T00:45:09;12.47;;;9.30;;
56860;SDS011;42744;51.094;3.490;2022-07-21T00:47:41;12.23;;;9.50;;
56860;SDS011;42744;51.094;3.490;2022-07-21T00:50:09;14.50;;;10.03;;
56860;SDS011;42744;51.094;3.490;2022-07-21T00:52:37;12.93;;;9.37;;
56860;SDS011;42744;51.094;3.490;2022-07-21T00:55:04;12.03;;;8.93;;
56860;SDS011;42744;51.094;3.490;2022-07-21T00:57:34;15.10;;;9.40;;
56860;SDS011;42744;51.094;3.490;2022-07-21T01:00:03;11.43;;;8.57;;
56860;SDS011;42744;51.094;3.490;2022-07-21T01:02:33;15.13;;;8.87;;
56860;SDS011;42744;51.094;3.490;2022-07-21T01:05:05;11.10;;;7.97;;
56860;SDS011;42744;51.094;3.490;2022-07-21T01:07:44;12.03;;;8.20;;
56860;SDS011;42744;51.094;3.490;2022-07-21T01:10:12;12.60;;;8.30;;
56860;SDS011;42744;51.094;3.490;2022-07-21T01:12:45;10.67;;;7.53;;
56860;SDS011;42744;51.094;3.490;2022-07-21T01:15:15;16.80;;;8.50;;
56860;SDS011;42744;51.094;3.490;2022-07-21T01:17:43;12.83;;;7.47;;
56860;SDS011;42744;51.094;3.490;2022-07-21T01:20:11;10.67;;;7.90;;
56860;SDS011;42744;51.094;3.490;2022-07-21T01:22:40;15.43;;;8.33;;
56860;SDS011;42744;51.094;3.490;2022-07-21T01:25:08;11.03;;;7.70;;
56860;SDS011;42744;51.094;3.490;2022-07-21T01:27:35;11.20;;;8.03;;
56860;SDS011;42744;51.094;3.490;2022-07-21T01:30:02;11.93;;;7.90;;
56860;SDS011;42744;51.094;3.490;2022-07-21T01:32:34;13.23;;;7.87;;
56860;SDS011;42744;51.094;3.490;2022-07-21T01:35:04;14.63;;;7.77;;
56860;SDS011;42744;51.094;3.490;2022-07-21T01:37:37;14.87;;;8.17;;
56860;SDS011;42744;51.094;3.490;2022-07-21T01:40:05;11.87;;;8.10;;
56860;SDS011;42744;51.094;3.490;2022-07-21T01:42:51;11.10;;;8.10;;
56860;SDS011;42744;51.094;3.490;2022-07-21T01:45:18;9.30;;;7.37;;
56860;SDS011;42744;51.094;3.490;2022-07-21T01:47:44;14.83;;;8.43;;
56860;SDS011;42744;51.094;3.490;2022-07-21T01:50:10;13.60;;;8.00;;
56860;SDS011;42744;51.094;3.490;2022-07-21T01:52:39;15.07;;;8.70;;
56860;SDS011;42744;51.094;3.490;2022-07-21T01:55:05;14.47;;;8.10;;
56860;SDS011;42744;51.094;3.490;2022-07-21T01:57:32;12.40;;;7.60;;
56860;SDS011;42744;51.094;3.490;2022-07-21T01:59:57;13.33;;;7.90;;
56860;SDS011;42744;51.094;3.490;2022-07-21T02:02:26;15.07;;;8.93;;
56860;SDS011;42744;51.094;3.490;2022-07-21T02:04:52;13.90;;;8.13;;
56860;SDS011;42744;51.094;3.490;2022-07-21T02:07:18;12.27;;;8.00;;
56860;SDS011;42744;51.094;3.490;2022-07-21T02:09:44;14.87;;;8.77;;
56860;SDS011;42744;51.094;3.490;2022-07-21T02:12:10;15.13;;;8.90;;
56860;SDS011;42744;51.094;3.490;2022-07-21T02:14:36;13.60;;;8.63;;
56860;SDS011;42744;51.094;3.490;2022-07-21T02:17:02;11.30;;;8.87;;
56860;SDS011;42744;51.094;3.490;2022-07-21T02:19:28;13.03;;;8.60;;
56860;SDS011;42744;51.094;3.490;2022-07-21T02:21:54;12.60;;;8.13;;
56860;SDS011;42744;51.094;3.490;2022-07-21T02:24:19;13.23;;;9.23;;
56860;SDS011;42744;51.094;3.490;2022-07-21T02:26:45;15.47;;;9.00;;
56860;SDS011;42744;51.094;3.490;2022-07-21T02:29:12;14.23;;;9.33;;
56860;SDS011;42744;51.094;3.490;2022-07-21T02:31:38;16.20;;;9.57;;
56860;SDS011;42744;51.094;3.490;2022-07-21T02:34:04;15.07;;;9.80;;
56860;SDS011;42744;51.094;3.490;2022-07-21T02:36:31;17.83;;;9.67;;
56860;SDS011;42744;51.094;3.490;2022-07-21T02:38:58;17.50;;;10.47;;
56860;SDS011;42744;51.094;3.490;2022-07-21T02:41:24;19.10;;;11.63;;
56860;SDS011;42744;51.094;3.490;2022-07-21T02:43:50;21.37;;;12.33;;
56860;SDS011;42744;51.094;3.490;2022-07-21T02:46:16;18.37;;;12.87;;
56860;SDS011;42744;51.094;3.490;2022-07-21T02:48:42;16.73;;;12.80;;
56860;SDS011;42744;51.094;3.490;2022-07-21T02:51:08;22.63;;;13.13;;
56860;SDS011;42744;51.094;3.490;2022-07-21T02:53:34;19.20;;;12.83;;
56860;SDS011;42744;51.094;3.490;2022-07-21T02:56:00;18.40;;;14.30;;
56860;SDS011;42744;51.094;3.490;2022-07-21T02:58:27;18.77;;;14.07;;
56860;SDS011;42744;51.094;3.490;2022-07-21T03:00:54;22.33;;;14.93;;
56860;SDS011;42744;51.094;3.490;2022-07-21T03:03:23;23.97;;;15.37;;
56860;SDS011;42744;51.094;3.490;2022-07-21T03:05:50;24.70;;;15.53;;
56860;SDS011;42744;51.094;3.490;2022-07-21T03:08:17;23.07;;;15.67;;
56860;SDS011;42744;51.094;3.490;2022-07-21T03:10:43;23.13;;;15.53;;
56860;SDS011;42744;51.094;3.490;2022-07-21T03:13:10;21.17;;;15.80;;
56860;SDS011;42744;51.094;3.490;2022-07-21T03:15:36;22.40;;;16.73;;
56860;SDS011;42744;51.094;3.490;2022-07-21T03:18:03;24.67;;;17.23;;
56860;SDS011;42744;51.094;3.490;2022-07-21T03:20:30;26.30;;;17.83;;
56860;SDS011;42744;51.094;3.490;2022-07-21T03:22:58;22.37;;;18.27;;
56860;SDS011;42744;51.094;3.490;2022-07-21T03:25:24;24.63;;;17.80;;
56860;SDS011;42744;51.094;3.490;2022-07-21T03:27:50;24.60;;;17.37;;
56860;SDS011;42744;51.094;3.490;2022-07-21T03:30:16;23.83;;;18.97;;
56860;SDS011;42744;51.094;3.490;2022-07-21T03:32:43;26.93;;;18.90;;
56860;SDS011;42744;51.094;3.490;2022-07-21T03:35:10;25.63;;;18.23;;
56860;SDS011;42744;51.094;3.490;2022-07-21T03:38:10;28.53;;;18.63;;
56860;SDS011;42744;51.094;3.490;2022-07-21T03:40:31;24.27;;;19.37;;
56860;SDS011;42744;51.094;3.490;2022-07-21T03:42:59;26.90;;;19.73;;
56860;SDS011;42744;51.094;3.490;2022-07-21T03:45:27;24.00;;;19.27;;
56860;SDS011;42744;51.094;3.490;2022-07-21T03:47:58;28.10;;;19.83;;
56860;SDS011;42744;51.094;3.490;2022-07-21T03:50:25;26.50;;;19.60;;
56860;SDS011;42744;51.094;3.490;2022-07-21T03:52:52;26.50;;;20.10;;
56860;SDS011;42744;51.094;3.490;2022-07-21T03:55:19;26.83;;;20.57;;
56860;SDS011;42744;51.094;3.490;2022-07-21T04:00:25;24.87;;;21.10;;
56860;SDS011;42744;51.094;3.490;2022-07-21T04:02:51;28.33;;;20.87;;
56860;SDS011;42744;51.094;3.490;2022-07-21T04:05:17;25.83;;;21.20;;
56860;SDS011;42744;51.094;3.490;2022-07-21T04:07:47;27.23;;;20.20;;
56860;SDS011;42744;51.094;3.490;2022-07-21T04:10:15;28.87;;;21.20;;
56860;SDS011;42744;51.094;3.490;2022-07-21T04:12:43;26.80;;;20.87;;
56860;SDS011;42744;51.094;3.490;2022-07-21T04:15:09;29.67;;;21.80;;
56860;SDS011;42744;51.094;3.490;2022-07-21T04:17:37;31.07;;;21.70;;
56860;SDS011;42744;51.094;3.490;2022-07-21T04:20:04;30.37;;;23.67;;
56860;SDS011;42744;51.094;3.490;2022-07-21T04:22:31;27.50;;;22.60;;
56860;SDS011;42744;51.094;3.490;2022-07-21T04:24:57;30.47;;;24.20;;
56860;SDS011;42744;51.094;3.490;2022-07-21T04:27:25;33.77;;;24.23;;
56860;SDS011;42744;51.094;3.490;2022-07-21T04:29:51;33.13;;;24.53;;
56860;SDS011;42744;51.094;3.490;2022-07-21T04:32:17;33.03;;;25.60;;
56860;SDS011;42744;51.094;3.490;2022-07-21T04:34:45;33.43;;;24.77;;
56860;SDS011;42744;51.094;3.490;2022-07-21T04:37:11;31.63;;;25.07;;
56860;SDS011;42744;51.094;3.490;2022-07-21T04:39:37;36.67;;;25.60;;
56860;SDS011;42744;51.094;3.490;2022-07-21T04:42:03;36.87;;;27.17;;
56860;SDS011;42744;51.094;3.490;2022-07-21T04:44:30;36.37;;;25.53;;
56860;SDS011;42744;51.094;3.490;2022-07-21T04:46:56;38.67;;;27.43;;
56860;SDS011;42744;51.094;3.490;2022-07-21T04:49:23;34.97;;;26.97;;
56860;SDS011;42744;51.094;3.490;2022-07-21T04:51:49;35.83;;;27.63;;
56860;SDS011;42744;51.094;3.490;2022-07-21T04:54:15;40.57;;;29.60;;
56860;SDS011;42744;51.094;3.490;2022-07-21T04:56:42;41.30;;;29.07;;
56860;SDS011;42744;51.094;3.490;2022-07-21T04:59:08;45.67;;;31.03;;
56860;SDS011;42744;51.094;3.490;2022-07-21T05:01:35;48.40;;;31.27;;
56860;SDS011;42744;51.094;3.490;2022-07-21T05:04:02;46.70;;;31.93;;
56860;SDS011;42744;51.094;3.490;2022-07-21T05:06:29;46.87;;;31.13;;
56860;SDS011;42744;51.094;3.490;2022-07-21T05:08:55;51.93;;;33.83;;
56860;SDS011;42744;51.094;3.490;2022-07-21T05:11:21;49.80;;;32.80;;
56860;SDS011;42744;51.094;3.490;2022-07-21T05:13:47;56.87;;;34.80;;
56860;SDS011;42744;51.094;3.490;2022-07-21T05:16:13;52.77;;;34.20;;
56860;SDS011;42744;51.094;3.490;2022-07-21T05:18:39;58.57;;;34.80;;
56860;SDS011;42744;51.094;3.490;2022-07-21T05:21:05;62.97;;;35.60;;
56860;SDS011;42744;51.094;3.490;2022-07-21T05:23:31;58.10;;;36.03;;
56860;SDS011;42744;51.094;3.490;2022-07-21T05:25:57;60.07;;;36.10;;
56860;SDS011;42744;51.094;3.490;2022-07-21T05:28:23;57.03;;;35.93;;
56860;SDS011;42744;51.094;3.490;2022-07-21T05:30:50;61.83;;;36.53;;
56860;SDS011;42744;51.094;3.490;2022-07-21T05:33:19;57.77;;;34.47;;
56860;SDS011;42744;51.094;3.490;2022-07-21T05:35:45;56.83;;;33.53;;
56860;SDS011;42744;51.094;3.490;2022-07-21T05:38:11;56.40;;;34.33;;
56860;SDS011;42744;51.094;3.490;2022-07-21T05:40:38;56.13;;;34.30;;
56860;SDS011;42744;51.094;3.490;2022-07-21T05:43:03;49.63;;;33.27;;
56860;SDS011;42744;51.094;3.490;2022-07-21T05:45:30;46.53;;;31.60;;
56860;SDS011;42744;51.094;3.490;2022-07-21T05:47:55;42.43;;;29.70;;
56860;SDS011;42744;51.094;3.490;2022-07-21T05:50:21;38.40;;;28.03;;
56860;SDS011;42744;51.094;3.490;2022-07-21T05:52:47;46.67;;;27.93;;
56860;SDS011;42744;51.094;3.490;2022-07-21T05:55:13;40.07;;;25.97;;
56860;SDS011;42744;51.094;3.490;2022-07-21T05:57:39;34.70;;;26.13;;
56860;SDS011;42744;51.094;3.490;2022-07-21T06:00:05;39.83;;;25.67;;
56860;SDS011;42744;51.094;3.490;2022-07-21T06:02:33;39.93;;;24.70;;
56860;SDS011;42744;51.094;3.490;2022-07-21T06:05:03;36.37;;;23.77;;
56860;SDS011;42744;51.094;3.490;2022-07-21T06:07:33;32.53;;;21.57;;
56860;SDS011;42744;51.094;3.490;2022-07-21T06:10:00;33.63;;;22.03;;
56860;SDS011;42744;51.094;3.490;2022-07-21T06:12:29;32.63;;;21.27;;
56860;SDS011;42744;51.094;3.490;2022-07-21T06:14:57;28.33;;;19.23;;
56860;SDS011;42744;51.094;3.490;2022-07-21T06:17:26;37.20;;;18.97;;
56860;SDS011;42744;51.094;3.490;2022-07-21T06:19:57;28.33;;;18.30;;
56860;SDS011;42744;51.094;3.490;2022-07-21T06:22:23;24.93;;;16.97;;
56860;SDS011;42744;51.094;3.490;2022-07-21T06:24:50;22.30;;;15.30;;
56860;SDS011;42744;51.094;3.490;2022-07-21T06:27:20;22.47;;;14.30;;
56860;SDS011;42744;51.094;3.490;2022-07-21T06:29:46;19.73;;;14.47;;
56860;SDS011;42744;51.094;3.490;2022-07-21T06:32:12;25.17;;;14.13;;
56860;SDS011;42744;51.094;3.490;2022-07-21T06:34:38;16.77;;;12.20;;
56860;SDS011;42744;51.094;3.490;2022-07-21T06:37:04;19.63;;;12.80;;
56860;SDS011;42744;51.094;3.490;2022-07-21T06:39:30;18.27;;;11.57;;
56860;SDS011;42744;51.094;3.490;2022-07-21T06:41:57;17.57;;;12.43;;
56860;SDS011;42744;51.094;3.490;2022-07-21T06:44:26;20.23;;;12.97;;
56860;SDS011;42744;51.094;3.490;2022-07-21T06:46:52;16.40;;;12.07;;
56860;SDS011;42744;51.094;3.490;2022-07-21T06:49:26;20.60;;;12.07;;
56860;SDS011;42744;51.094;3.490;2022-07-21T06:51:52;18.47;;;12.83;;
56860;SDS011;42744;51.094;3.490;2022-07-21T06:54:17;20.67;;;11.20;;
56860;SDS011;42744;51.094;3.490;2022-07-21T06:56:44;14.43;;;10.37;;
56860;SDS011;42744;51.094;3.490;2022-07-21T06:59:09;15.83;;;10.90;;
56860;SDS011;42744;51.094;3.490;2022-07-21T07:01:35;15.40;;;10.43;;
56860;SDS011;42744;51.094;3.490;2022-07-21T07:04:01;17.27;;;10.63;;
56860;SDS011;42744;51.094;3.490;2022-07-21T07:06:27;17.83;;;11.43;;
56860;SDS011;42744;51.094;3.490;2022-07-21T07:08:53;20.63;;;10.93;;
56860;SDS011;42744;51.094;3.490;2022-07-21T07:11:19;14.20;;;10.30;;
56860;SDS011;42744;51.094;3.490;2022-07-21T07:13:48;15.77;;;10.07;;
56860;SDS011;42744;51.094;3.490;2022-07-21T07:16:19;18.30;;;9.97;;
56860;SDS011;42744;51.094;3.490;2022-07-21T07:18:48;12.90;;;9.37;;
56860;SDS011;42744;51.094;3.490;2022-07-21T07:21:14;17.53;;;9.80;;
56860;SDS011;42744;51.094;3.490;2022-07-21T07:23:40;12.00;;;9.97;;
56860;SDS011;42744;51.094;3.490;2022-07-21T07:26:07;14.80;;;10.47;;
56860;SDS011;42744;51.094;3.490;2022-07-21T07:28:33;16.63;;;11.13;;
56860;SDS011;42744;51.094;3.490;2022-07-21T07:30:59;20.50;;;11.20;;
56860;SDS011;42744;51.094;3.490;2022-07-21T07:33:25;20.33;;;10.83;;
56860;SDS011;42744;51.094;3.490;2022-07-21T07:35:52;16.53;;;9.77;;
56860;SDS011;42744;51.094;3.490;2022-07-21T07:38:23;17.00;;;10.17;;
56860;SDS011;42744;51.094;3.490;2022-07-21T07:40:49;17.40;;;9.63;;
56860;SDS011;42744;51.094;3.490;2022-07-21T07:43:15;17.47;;;10.20;;
56860;SDS011;42744;51.094;3.490;2022-07-21T07:45:41;15.63;;;9.17;;
56860;SDS011;42744;51.094;3.490;2022-07-21T07:48:10;14.23;;;9.37;;
56860;SDS011;42744;51.094;3.490;2022-07-21T07:50:36;11.57;;;7.20;;
56860;SDS011;42744;51.094;3.490;2022-07-21T07:53:02;12.63;;;7.23;;
56860;SDS011;42744;51.094;3.490;2022-07-21T07:55:28;7.73;;;6.80;;
56860;SDS011;42744;51.094;3.490;2022-07-21T07:57:54;10.77;;;7.20;;
56860;SDS011;42744;51.094;3.490;2022-07-21T08:00:20;11.70;;;7.30;;
56860;SDS011;42744;51.094;3.490;2022-07-21T08:02:46;9.23;;;6.80;;
56860;SDS011;42744;51.094;3.490;2022-07-21T08:05:14;13.90;;;7.37;;
56860;SDS011;42744;51.094;3.490;2022-07-21T08:07:40;10.10;;;6.20;;
56860;SDS011;42744;51.094;3.490;2022-07-21T08:10:11;9.63;;;6.73;;
56860;SDS011;42744;51.094;3.490;2022-07-21T08:12:40;9.33;;;6.20;;
56860;SDS011;42744;51.094;3.490;2022-07-21T08:15:07;9.80;;;6.90;;
56860;SDS011;42744;51.094;3.490;2022-07-21T08:17:34;11.23;;;7.17;;
56860;SDS011;42744;51.094;3.490;2022-07-21T08:20:00;15.43;;;7.43;;
56860;SDS011;42744;51.094;3.490;2022-07-21T08:22:26;16.37;;;7.73;;
56860;SDS011;42744;51.094;3.490;2022-07-21T08:24:53;13.10;;;7.33;;
56860;SDS011;42744;51.094;3.490;2022-07-21T08:27:19;16.40;;;7.33;;
56860;SDS011;42744;51.094;3.490;2022-07-21T08:29:46;13.13;;;7.77;;
56860;SDS011;42744;51.094;3.490;2022-07-21T08:32:14;13.43;;;7.90;;
56860;SDS011;42744;51.094;3.490;2022-07-21T08:34:40;11.63;;;7.70;;
56860;SDS011;42744;51.094;3.490;2022-07-21T08:37:09;13.57;;;7.70;;
56860;SDS011;42744;51.094;3.490;2022-07-21T08:39:35;14.33;;;7.83;;
56860;SDS011;42744;51.094;3.490;2022-07-21T08:42:01;13.63;;;7.77;;
56860;SDS011;42744;51.094;3.490;2022-07-21T08:44:28;12.43;;;7.73;;
56860;SDS011;42744;51.094;3.490;2022-07-21T08:46:54;11.77;;;7.93;;
56860;SDS011;42744;51.094;3.490;2022-07-21T08:49:21;18.13;;;8.50;;
56860;SDS011;42744;51.094;3.490;2022-07-21T08:51:48;16.73;;;8.03;;
56860;SDS011;42744;51.094;3.490;2022-07-21T08:54:16;16.30;;;7.93;;
56860;SDS011;42744;51.094;3.490;2022-07-21T08:56:46;12.57;;;8.13;;
56860;SDS011;42744;51.094;3.490;2022-07-21T08:59:16;12.03;;;7.27;;
56860;SDS011;42744;51.094;3.490;2022-07-21T09:01:42;13.67;;;7.17;;
56860;SDS011;42744;51.094;3.490;2022-07-21T09:04:30;12.93;;;7.30;;
56860;SDS011;42744;51.094;3.490;2022-07-21T09:07:03;12.97;;;7.63;;
56860;SDS011;42744;51.094;3.490;2022-07-21T09:09:32;15.53;;;7.80;;
56860;SDS011;42744;51.094;3.490;2022-07-21T09:12:00;13.10;;;7.33;;
56860;SDS011;42744;51.094;3.490;2022-07-21T09:14:31;16.47;;;7.40;;
56860;SDS011;42744;51.094;3.490;2022-07-21T09:16:59;17.57;;;6.93;;
56860;SDS011;42744;51.094;3.490;2022-07-21T09:19:36;13.60;;;7.27;;
56860;SDS011;42744;51.094;3.490;2022-07-21T09:22:13;9.33;;;6.47;;
56860;SDS011;42744;51.094;3.490;2022-07-21T09:24:52;12.33;;;5.97;;
56860;SDS011;42744;51.094;3.490;2022-07-21T09:27:23;10.73;;;5.77;;
56860;SDS011;42744;51.094;3.490;2022-07-21T09:32:27;8.57;;;4.80;;
56860;SDS011;42744;51.094;3.490;2022-07-21T09:37:40;13.07;;;6.10;;
56860;SDS011;42744;51.094;3.490;2022-07-21T09:40:08;7.47;;;4.67;;
56860;SDS011;42744;51.094;3.490;2022-07-21T09:42:47;13.30;;;5.17;;
56860;SDS011;42744;51.094;3.490;2022-07-21T09:45:16;11.27;;;4.73;;
56860;SDS011;42744;51.094;3.490;2022-07-21T09:47:46;9.87;;;4.80;;
56860;SDS011;42744;51.094;3.490;2022-07-21T09:50:13;9.43;;;4.30;;
56860;SDS011;42744;51.094;3.490;2022-07-21T09:52:44;10.33;;;4.37;;
56860;SDS011;42744;51.094;3.490;2022-07-21T09:55:12;9.07;;;4.20;;
56860;SDS011;42744;51.094;3.490;2022-07-21T09:57:40;8.10;;;4.03;;
56860;SDS011;42744;51.094;3.490;2022-07-21T10:00:08;9.20;;;4.07;;
56860;SDS011;42744;51.094;3.490;2022-07-21T10:02:43;8.43;;;4.60;;
56860;SDS011;42744;51.094;3.490;2022-07-21T10:05:10;8.90;;;3.87;;
56860;SDS011;42744;51.094;3.490;2022-07-21T10:07:39;9.70;;;4.40;;
56860;SDS011;42744;51.094;3.490;2022-07-21T10:10:07;9.07;;;4.23;;
56860;SDS011;42744;51.094;3.490;2022-07-21T10:12:34;8.67;;;4.20;;
56860;SDS011;42744;51.094;3.490;2022-07-21T10:15:00;8.70;;;4.00;;
56860;SDS011;42744;51.094;3.490;2022-07-21T10:17:26;10.33;;;4.20;;
56860;SDS011;42744;51.094;3.490;2022-07-21T10:20:11;13.30;;;4.43;;
56860;SDS011;42744;51.094;3.490;2022-07-21T10:25:26;13.50;;;4.10;;
56860;SDS011;42744;51.094;3.490;2022-07-21T10:30:56;8.80;;;3.63;;
56860;SDS011;42744;51.094;3.490;2022-07-21T10:36:10;10.97;;;4.00;;
56860;SDS011;42744;51.094;3.490;2022-07-21T10:49:45;11.37;;;4.10;;
56860;SDS011;42744;51.094;3.490;2022-07-21T10:55:14;10.27;;;4.10;;
56860;SDS011;42744;51.094;3.490;2022-07-21T11:03:30;10.27;;;4.33;;
56860;SDS011;42744;51.094;3.490;2022-07-21T11:11:31;12.47;;;4.67;;
56860;SDS011;42744;51.094;3.490;2022-07-21T11:14:00;15.90;;;4.90;;
56860;SDS011;42744;51.094;3.490;2022-07-21T11:22:01;12.40;;;4.53;;
56860;SDS011;42744;51.094;3.490;2022-07-21T11:24:29;13.70;;;4.30;;
56860;SDS011;42744;51.094;3.490;2022-07-21T11:27:06;16.03;;;5.13;;
56860;SDS011;42744;51.094;3.490;2022-07-21T11:29:34;9.87;;;4.50;;
56860;SDS011;42744;51.094;3.490;2022-07-21T11:32:05;13.57;;;5.23;;
56860;SDS011;42744;51.094;3.490;2022-07-21T11:37:32;11.30;;;4.50;;
56860;SDS011;42744;51.094;3.490;2022-07-21T11:40:06;13.27;;;4.50;;
56860;SDS011;42744;51.094;3.490;2022-07-21T11:42:36;12.17;;;5.40;;
56860;SDS011;42744;51.094;3.490;2022-07-21T11:45:04;11.53;;;4.83;;
56860;SDS011;42744;51.094;3.490;2022-07-21T11:47:31;14.47;;;4.60;;
56860;SDS011;42744;51.094;3.490;2022-07-21T11:50:01;21.80;;;4.53;;
56860;SDS011;42744;51.094;3.490;2022-07-21T11:52:32;15.27;;;4.80;;
56860;SDS011;42744;51.094;3.490;2022-07-21T11:55:02;12.57;;;4.30;;
56860;SDS011;42744;51.094;3.490;2022-07-21T11:57:29;10.20;;;4.37;;
56860;SDS011;42744;51.094;3.490;2022-07-21T11:59:56;12.37;;;4.43;;
56860;SDS011;42744;51.094;3.490;2022-07-21T12:02:37;10.27;;;3.97;;
56860;SDS011;42744;51.094;3.490;2022-07-21T12:05:04;12.53;;;4.17;;
56860;SDS011;42744;51.094;3.490;2022-07-21T12:10:14;14.20;;;5.00;;
56860;SDS011;42744;51.094;3.490;2022-07-21T12:12:47;10.87;;;4.13;;
56860;SDS011;42744;51.094;3.490;2022-07-21T12:15:16;11.20;;;4.03;;
56860;SDS011;42744;51.094;3.490;2022-07-21T12:17:46;10.60;;;4.77;;
56860;SDS011;42744;51.094;3.490;2022-07-21T12:20:15;11.50;;;4.47;;
56860;SDS011;42744;51.094;3.490;2022-07-21T12:22:49;11.27;;;4.47;;
56860;SDS011;42744;51.094;3.490;2022-07-21T12:25:16;13.50;;;5.10;;
56860;SDS011;42744;51.094;3.490;2022-07-21T12:27:47;13.13;;;4.07;;
56860;SDS011;42744;51.094;3.490;2022-07-21T12:33:13;10.53;;;3.73;;
56860;SDS011;42744;51.094;3.490;2022-07-21T12:36:06;10.03;;;4.40;;
56860;SDS011;42744;51.094;3.490;2022-07-21T12:41:10;7.30;;;3.70;;
56860;SDS011;42744;51.094;3.490;2022-07-21T12:43:56;10.80;;;3.57;;
56860;SDS011;42744;51.094;3.490;2022-07-21T12:49:05;13.73;;;4.50;;
56860;SDS011;42744;51.094;3.490;2022-07-21T12:51:32;12.63;;;4.60;;
56860;SDS011;42744;51.094;3.490;2022-07-21T12:54:02;12.87;;;3.97;;
56860;SDS011;42744;51.094;3.490;2022-07-21T12:56:32;11.27;;;4.40;;
56860;SDS011;42744;51.094;3.490;2022-07-21T12:59:00;10.70;;;4.40;;
56860;SDS011;42744;51.094;3.490;2022-07-21T13:01:32;12.00;;;4.13;;
56860;SDS011;42744;51.094;3.490;2022-07-21T13:04:01;9.77;;;3.90;;
56860;SDS011;42744;51.094;3.490;2022-07-21T13:06:32;9.47;;;3.40;;
56860;SDS011;42744;51.094;3.490;2022-07-21T13:08:58;13.77;;;3.73;;
56860;SDS011;42744;51.094;3.490;2022-07-21T13:11:25;13.13;;;3.60;;
56860;SDS011;42744;51.094;3.490;2022-07-21T13:13:51;12.10;;;4.33;;
56860;SDS011;42744;51.094;3.490;2022-07-21T13:16:17;11.07;;;3.80;;
56860;SDS011;42744;51.094;3.490;2022-07-21T13:18:45;10.30;;;3.53;;
56860;SDS011;42744;51.094;3.490;2022-07-21T13:21:11;13.00;;;4.43;;
56860;SDS011;42744;51.094;3.490;2022-07-21T13:23:37;12.43;;;4.10;;
56860;SDS011;42744;51.094;3.490;2022-07-21T13:26:03;10.93;;;3.80;;
56860;SDS011;42744;51.094;3.490;2022-07-21T13:28:29;11.43;;;3.90;;
56860;SDS011;42744;51.094;3.490;2022-07-21T13:30:55;13.57;;;3.30;;
56860;SDS011;42744;51.094;3.490;2022-07-21T13:33:24;10.70;;;3.33;;
56860;SDS011;42744;51.094;3.490;2022-07-21T13:35:50;15.07;;;4.47;;
56860;SDS011;42744;51.094;3.490;2022-07-21T13:38:15;13.90;;;3.87;;
56860;SDS011;42744;51.094;3.490;2022-07-21T13:40:42;11.53;;;3.80;;
56860;SDS011;42744;51.094;3.490;2022-07-21T13:43:08;13.80;;;3.77;;
56860;SDS011;42744;51.094;3.490;2022-07-21T13:45:34;9.90;;;3.97;;
56860;SDS011;42744;51.094;3.490;2022-07-21T13:48:03;13.73;;;4.13;;
56860;SDS011;42744;51.094;3.490;2022-07-21T13:50:29;11.77;;;4.03;;
56860;SDS011;42744;51.094;3.490;2022-07-21T13:52:55;10.20;;;3.77;;
56860;SDS011;42744;51.094;3.490;2022-07-21T13:55:29;11.30;;;4.27;;
56860;SDS011;42744;51.094;3.490;2022-07-21T13:57:55;20.87;;;5.07;;
56860;SDS011;42744;51.094;3.490;2022-07-21T14:00:21;10.60;;;4.33;;
56860;SDS011;42744;51.094;3.490;2022-07-21T14:02:47;13.73;;;3.77;;
56860;SDS011;42744;51.094;3.490;2022-07-21T14:05:13;11.90;;;4.17;;
56860;SDS011;42744;51.094;3.490;2022-07-21T14:07:39;10.90;;;3.40;;
56860;SDS011;42744;51.094;3.490;2022-07-21T14:10:05;11.53;;;3.53;;
56860;SDS011;42744;51.094;3.490;2022-07-21T14:12:32;9.37;;;3.77;;
56860;SDS011;42744;51.094;3.490;2022-07-21T14:15:01;13.40;;;3.70;;
56860;SDS011;42744;51.094;3.490;2022-07-21T14:17:27;14.33;;;3.83;;
56860;SDS011;42744;51.094;3.490;2022-07-21T14:19:53;12.60;;;4.23;;
56860;SDS011;42744;51.094;3.490;2022-07-21T14:22:22;11.93;;;3.60;;
56860;SDS011;42744;51.094;3.490;2022-07-21T14:24:48;15.90;;;3.80;;
56860;SDS011;42744;51.094;3.490;2022-07-21T14:27:37;12.77;;;4.17;;
56860;SDS011;42744;51.094;3.490;2022-07-21T14:30:04;13.30;;;3.90;;
56860;SDS011;42744;51.094;3.490;2022-07-21T14:32:30;14.57;;;4.00;;
56860;SDS011;42744;51.094;3.490;2022-07-21T14:34:56;14.30;;;3.40;;
56860;SDS011;42744;51.094;3.490;2022-07-21T14:37:25;13.17;;;4.00;;
56860;SDS011;42744;51.094;3.490;2022-07-21T14:39:51;10.77;;;3.10;;
56860;SDS011;42744;51.094;3.490;2022-07-21T14:42:17;14.18;;;3.92;;
56860;SDS011;42744;51.094;3.490;2022-07-21T14:44:44;14.52;;;3.25;;
56860;SDS011;42744;51.094;3.490;2022-07-21T14:47:11;13.00;;;3.58;;
56860;SDS011;42744;51.094;3.490;2022-07-21T14:49:37;10.02;;;3.10;;
56860;SDS011;42744;51.094;3.490;2022-07-21T14:52:04;8.55;;;3.37;;
56860;SDS011;42744;51.094;3.490;2022-07-21T14:54:30;11.45;;;3.80;;
56860;SDS011;42744;51.094;3.490;2022-07-21T14:56:56;17.27;;;3.45;;
56860;SDS011;42744;51.094;3.490;2022-07-21T14:59:23;14.45;;;3.53;;
56860;SDS011;42744;51.094;3.490;2022-07-21T15:01:51;13.95;;;3.28;;
56860;SDS011;42744;51.094;3.490;2022-07-21T15:04:17;16.48;;;3.70;;
56860;SDS011;42744;51.094;3.490;2022-07-21T15:06:44;13.05;;;3.47;;
56860;SDS011;42744;51.094;3.490;2022-07-21T15:09:11;10.90;;;2.92;;
56860;SDS011;42744;51.094;3.490;2022-07-21T15:11:37;12.65;;;3.35;;
56860;SDS011;42744;51.094;3.490;2022-07-21T15:14:03;9.63;;;2.95;;
56860;SDS011;42744;51.094;3.490;2022-07-21T15:16:29;10.85;;;3.20;;
56860;SDS011;42744;51.094;3.490;2022-07-21T15:18:55;9.73;;;3.20;;
56860;SDS011;42744;51.094;3.490;2022-07-21T15:21:23;8.32;;;2.83;;
56860;SDS011;42744;51.094;3.490;2022-07-21T15:23:49;11.43;;;3.30;;
56860;SDS011;42744;51.094;3.490;2022-07-21T15:26:18;13.75;;;3.45;;
56860;SDS011;42744;51.094;3.490;2022-07-21T15:28:48;12.63;;;4.12;;
56860;SDS011;42744;51.094;3.490;2022-07-21T15:31:13;13.23;;;3.30;;
56860;SDS011;42744;51.094;3.490;2022-07-21T15:33:39;13.17;;;3.70;;
56860;SDS011;42744;51.094;3.490;2022-07-21T15:36:05;16.93;;;3.50;;